Time;durP1;ratioP1;P1;durP2;ratioP2;P2;SDS_P1;SDS_P2;PMS_P1;PMS_P2;Temp;Humidity;BMP_temperature;BMP_pressure;BME280_temperature;BME280_humidity;BME280_pressure;Samples;Min_cycle;Max_cycle;Signal;HPM_P1;HPM_P2
2022/08/07 00:02:11;;;;;;;6.05;4.15;;;;;;;25.11;46.05;99545.91;5033371;28;20575;-68
2022/08/07 00:04:57;;;;;;;9.45;5.10;;;;;;;25.09;46.22;99542.72;5045559;28;20409;-66
2022/08/07 00:07:24;;;;;;;8.70;4.80;;;;;;;25.09;45.97;99542.72;5033200;28;20049;-67
2022/08/07 00:09:53;;;;;;;6.80;4.93;;;;;;;25.09;46.02;99542.72;5033045;28;20140;-67
2022/08/07 00:12:40;;;;;;;14.15;5.15;;;;;;;25.09;46.00;99537.03;5033142;28;20053;-68
2022/08/07 00:15:25;;;;;;;11.57;5.15;;;;;;;25.09;45.91;99539.06;5033159;28;20053;-69
2022/08/07 00:18:14;;;;;;;13.55;4.53;;;;;;;25.07;45.91;99544.34;5033120;28;20057;-65
2022/08/07 00:20:48;;;;;;;6.57;4.30;;;;;;;25.06;46.11;99545.59;5033520;28;20075;-66
2022/08/07 00:23:15;;;;;;;10.13;4.43;;;;;;;25.05;46.11;99541.16;5033641;28;20045;-67
2022/08/07 00:25:43;;;;;;;7.75;4.72;;;;;;;25.05;45.96;99535.47;5032525;28;20061;-66
2022/08/07 00:28:19;;;;;;;8.02;4.32;;;;;;;25.08;45.77;99528.91;5033018;28;20465;-66
2022/08/07 00:30:48;;;;;;;7.00;4.00;;;;;;;25.07;45.71;99530.13;5044713;28;20084;-67
2022/08/07 00:33:15;;;;;;;10.68;3.83;;;;;;;25.07;45.48;99532.97;5052448;28;20055;-67
2022/08/07 00:35:44;;;;;;;7.88;4.43;;;;;;;25.07;45.74;99532.97;5052427;28;20114;-67
2022/08/07 00:38:15;;;;;;;8.55;4.15;;;;;;;25.04;45.70;99530.97;5052811;28;20067;-66
2022/08/07 00:41:00;;;;;;;10.30;4.70;;;;;;;25.04;45.46;99528.13;5052291;28;20410;-66
2022/08/07 00:43:27;;;;;;;8.00;4.10;;;;;;;25.01;45.51;99531.84;5040605;28;20140;-68
2022/08/07 00:46:14;;;;;;;6.30;3.90;;;;;;;25.01;45.44;99532.66;5032643;28;20061;-68
2022/08/07 00:48:41;;;;;;;14.48;4.13;;;;;;;25.01;45.56;99538.34;5032703;28;20527;-68
2022/08/07 00:51:09;;;;;;;6.82;4.35;;;;;;;24.98;45.65;99532.72;5032715;28;20049;-69
2022/08/07 00:53:36;;;;;;;11.48;4.40;;;;;;;24.90;45.67;99528.38;5032201;28;20493;-69
2022/08/07 00:56:24;;;;;;;6.13;4.07;;;;;;;24.87;45.57;99523.53;5031263;28;20053;-69
2022/08/07 00:59:00;;;;;;;11.70;4.40;;;;;;;24.83;45.54;99529.28;5032420;28;20041;-68
2022/08/07 01:01:28;;;;;;;15.75;4.47;;;;;;;24.80;45.45;99529.31;5032583;28;20424;-69
2022/08/07 01:04:10;;;;;;;6.38;4.35;;;;;;;24.77;45.48;99524.47;5037826;28;20052;-68
2022/08/07 01:06:50;;;;;;;7.25;4.20;;;;;;;24.76;45.90;99534.25;5052555;28;20057;-68
2022/08/07 01:09:19;;;;;;;12.77;4.03;;;;;;;24.74;45.45;99531.03;5052113;28;20140;-73
2022/08/07 01:12:08;;;;;;;11.10;4.07;;;;;;;24.73;45.67;99533.09;5052049;28;20053;-73
2022/08/07 01:14:58;;;;;;;9.00;4.35;;;;;;;24.71;45.67;99529.84;5052563;28;20053;-73
2022/08/07 01:17:29;;;;;;;8.02;4.03;;;;;;;24.69;45.45;99534.38;5052096;28;20056;-74
2022/08/07 01:20:09;;;;;;;8.93;4.35;;;;;;;24.69;45.41;99538.00;5052568;28;20049;-73
2022/08/07 01:22:44;;;;;;;7.93;4.10;;;;;;;24.60;45.62;99525.53;5052814;28;20057;-73
2022/08/07 01:25:31;;;;;;;11.18;4.50;;;;;;;24.51;46.03;99522.41;5055910;28;20060;-74
2022/08/07 01:28:18;;;;;;;10.02;4.40;;;;;;;24.48;46.34;99517.56;5056649;28;20099;-74
2022/08/07 01:30:46;;;;;;;6.43;4.53;;;;;;;24.47;46.07;99527.31;5056140;28;20044;-74
2022/08/07 01:33:17;;;;;;;9.25;4.25;;;;;;;24.45;46.23;99529.78;5038787;28;20496;-74
2022/08/07 01:35:44;;;;;;;14.35;4.32;;;;;;;24.42;46.25;99527.78;5036186;28;20113;-75
2022/08/07 01:38:31;;;;;;;10.57;4.05;;;;;;;24.33;46.70;99527.47;5036036;28;20054;-74
2022/08/07 01:41:00;;;;;;;13.10;4.22;;;;;;;24.28;46.73;99525.13;5036063;28;20528;-72
2022/08/07 01:43:28;;;;;;;8.80;4.35;;;;;;;24.23;46.50;99529.25;5036059;28;20049;-73
2022/08/07 01:46:04;;;;;;;7.10;4.30;;;;;;;24.24;46.81;99524.34;5035910;28;20136;-73
2022/08/07 01:48:34;;;;;;;7.97;4.70;;;;;;;24.24;46.55;99524.34;5035898;28;20115;-73
2022/08/07 01:51:11;;;;;;;11.25;5.00;;;;;;;24.25;46.66;99525.97;5035817;28;20041;-74
2022/08/07 01:54:01;;;;;;;11.80;4.68;;;;;;;24.19;46.64;99516.28;5045885;28;20427;-73
2022/08/07 01:56:56;;;;;;;8.13;3.85;;;;;;;24.12;46.78;99527.72;5055740;28;20063;-72
2022/08/07 01:59:27;;;;;;;5.70;3.88;;;;;;;24.14;46.61;99526.09;5055407;28;20040;-74
2022/08/07 02:02:05;;;;;;;12.80;4.15;;;;;;;24.11;46.91;99518.41;5035673;28;20143;-74
2022/08/07 02:04:50;;;;;;;6.18;3.92;;;;;;;24.13;46.54;99526.53;5044787;28;20056;-74
2022/08/07 02:07:27;;;;;;;7.57;3.72;;;;;;;24.17;46.74;99521.59;5054649;28;20139;-74
2022/08/07 02:10:16;;;;;;;9.30;4.28;;;;;;;24.15;46.70;99518.34;5055677;28;20053;-73
2022/08/07 02:12:47;;;;;;;6.88;4.03;;;;;;;24.08;46.75;99522.09;5055273;28;20097;-73
2022/08/07 02:15:21;;;;;;;10.40;4.05;;;;;;;24.06;46.97;99513.19;5055327;28;20045;-74
2022/08/07 02:17:50;;;;;;;8.35;3.92;;;;;;;24.04;46.88;99509.94;5055332;28;20055;-67
2022/08/07 02:20:19;;;;;;;6.13;3.55;;;;;;;24.03;46.87;99511.19;5055336;28;20524;-66
2022/08/07 02:22:56;;;;;;;6.82;4.03;;;;;;;24.05;46.72;99505.09;5054885;28;20087;-66
2022/08/07 02:25:27;;;;;;;8.88;3.67;;;;;;;24.06;46.66;99512.38;5055168;28;20052;-66
2022/08/07 02:28:16;;;;;;;12.75;4.28;;;;;;;24.02;46.73;99508.78;5054892;28;20053;-66
2022/08/07 02:30:51;;;;;;;6.10;3.67;;;;;;;23.97;46.89;99503.53;5055234;28;20049;-66
2022/08/07 02:33:19;;;;;;;5.80;4.00;;;;;;;23.96;46.89;99504.78;5054857;28;20048;-68
2022/08/07 02:35:48;;;;;;;8.82;3.58;;;;;;;23.99;46.90;99504.75;5055278;28;20049;-67
2022/08/07 02:38:37;;;;;;;7.68;3.95;;;;;;;23.92;47.17;99512.53;5054779;28;20477;-67
2022/08/07 02:41:05;;;;;;;7.03;3.75;;;;;;;23.87;47.41;99513.78;5035465;28;20107;-67
2022/08/07 02:43:38;;;;;;;9.43;3.50;;;;;;;23.84;47.31;99514.63;5044016;28;20098;-67
2022/08/07 02:46:07;;;;;;;14.20;4.13;;;;;;;23.79;47.68;99515.09;5054573;28;20049;-67
2022/08/07 02:48:34;;;;;;;;;;;;;;;23.66;47.69;99518.88;5055664;28;20075;-67
2022/08/07 02:51:06;;;;;;;11.18;4.43;;;;;;;23.79;47.67;99517.94;5054642;28;19928;-67
2022/08/07 02:53:54;;;;;;;6.45;3.92;;;;;;;23.79;47.72;99519.94;5044978;28;20069;-67
2022/08/07 02:56:26;;;;;;;8.55;4.43;;;;;;;23.84;47.42;99522.34;5035174;28;20585;-67
2022/08/07 02:58:54;;;;;;;8.88;4.10;;;;;;;23.81;47.83;99518.31;5034547;28;20053;-67
2022/08/07 03:01:24;;;;;;;8.82;4.10;;;;;;;23.79;47.90;99525.63;5050015;28;20052;-67
2022/08/07 03:04:07;;;;;;;7.03;4.30;;;;;;;23.82;47.83;99519.09;5054534;28;20056;-67
2022/08/07 03:06:42;;;;;;;6.35;4.07;;;;;;;23.91;47.82;99516.56;5054517;28;20131;-67
2022/08/07 03:09:12;;;;;;;6.45;3.85;;;;;;;23.88;47.67;99523.09;5054041;28;20076;-67
2022/08/07 03:11:40;;;;;;;6.93;3.97;;;;;;;23.93;47.55;99516.97;5054376;28;20508;-67
2022/08/07 03:14:24;;;;;;;6.20;4.10;;;;;;;23.90;47.79;99520.66;5053925;28;20056;-67
2022/08/07 03:16:56;;;;;;;21.23;4.30;;;;;;;23.89;47.82;99525.53;5054166;28;20415;-67
2022/08/07 03:19:24;;;;;;;11.65;4.10;;;;;;;23.89;47.68;99522.69;5053876;28;20110;-67
2022/08/07 03:22:04;;;;;;;13.18;3.85;;;;;;;23.90;47.76;99517.81;5054354;28;20102;-67
2022/08/07 03:24:34;;;;;;;;;;;;;;;23.88;47.78;99525.94;5054473;28;20470;-67
2022/08/07 03:27:05;;;;;;;14.93;4.05;;;;;;;24.05;47.52;99519.28;5053755;28;20450;-67
2022/08/07 03:29:39;;;;;;;6.57;3.95;;;;;;;24.20;47.42;99517.91;5041141;28;20073;-68
2022/08/07 03:32:19;;;;;;;7.05;4.47;;;;;;;24.28;47.03;99519.44;5042731;28;20049;-68
2022/08/07 03:34:50;;;;;;;12.18;4.00;;;;;;;24.37;46.96;99511.97;5053948;28;20455;-69
2022/08/07 03:37:38;;;;;;;;;;;;;;;24.29;47.29;99527.53;5054364;28;21823;-68
2022/08/07 03:40:22;;;;;;;9.57;4.40;;;;;;;24.41;46.96;99517.63;5053935;28;19931;-68
2022/08/07 03:42:56;;;;;;;14.68;4.20;;;;;;;24.41;46.94;99512.75;5045868;28;20084;-68
2022/08/07 03:45:27;;;;;;;4.97;3.38;;;;;;;24.52;46.81;99516.28;5033282;28;20056;-68
2022/08/07 03:47:57;;;;;;;5.95;3.60;;;;;;;24.54;46.73;99521.53;5032752;28;20065;-65
2022/08/07 03:50:25;;;;;;;7.50;4.07;;;;;;;24.57;46.95;99515.78;5033954;28;20049;-66
2022/08/07 03:52:57;;;;;;;6.28;4.07;;;;;;;24.59;46.84;99521.03;5033313;28;20050;-65
2022/08/07 03:55:25;;;;;;;6.43;3.92;;;;;;;24.57;46.95;99510.09;5033373;28;20049;-64
2022/08/07 03:58:12;;;;;;;7.45;4.25;;;;;;;24.59;46.76;99519.03;5033194;28;20057;-65
2022/08/07 04:01:00;;;;;;;8.77;4.03;;;;;;;24.63;46.51;99525.44;5046299;28;20048;-65
2022/08/07 04:03:28;;;;;;;8.40;3.75;;;;;;;24.60;46.56;99520.63;5053424;28;20055;-65
2022/08/07 04:06:15;;;;;;;7.10;3.45;;;;;;;24.62;46.53;99517.34;5053132;28;20053;-65
2022/08/07 04:09:03;;;;;;;6.53;3.70;;;;;;;24.67;46.89;99522.59;5053325;28;20049;-65
2022/08/07 04:11:31;;;;;;;7.03;3.80;;;;;;;24.69;46.59;99517.31;5053474;28;20464;-65
2022/08/07 04:14:19;;;;;;;15.20;4.47;;;;;;;24.80;46.45;99515.91;5053128;28;20062;-65
2022/08/07 04:17:04;;;;;;;12.30;4.90;;;;;;;24.89;46.12;99518.19;5053485;28;20040;-65
2022/08/07 04:19:46;;;;;;;6.38;3.83;;;;;;;25.06;46.21;99531.38;5052942;28;20049;-66
2022/08/07 04:22:24;;;;;;;7.90;3.63;;;;;;;25.17;46.04;99532.03;5053162;28;20492;-67
2022/08/07 04:24:56;;;;;;;8.27;4.22;;;;;;;25.24;45.29;99526.19;5053369;28;20465;-67
2022/08/07 04:27:24;;;;;;;8.70;3.70;;;;;;;25.32;45.40;99527.75;5053245;28;20049;-67
2022/08/07 04:29:53;;;;;;;7.90;4.32;;;;;;;25.39;45.49;99529.63;5052907;28;20511;-67
2022/08/07 04:32:30;;;;;;;7.72;3.30;;;;;;;25.43;45.20;99528.34;5044157;28;20149;-67
2022/08/07 04:35:05;;;;;;;6.82;3.95;;;;;;;25.52;44.56;99522.91;5047984;28;20053;-66
2022/08/07 04:37:39;;;;;;;10.95;3.65;;;;;;;25.54;44.66;99528.97;5033105;28;20053;-65
2022/08/07 04:40:26;;;;;;;10.55;3.67;;;;;;;25.58;44.53;99529.72;5032931;28;20057;-74
2022/08/07 04:42:57;;;;;;;9.20;3.83;;;;;;;25.67;44.69;99529.16;5032551;28;20393;-74
2022/08/07 04:45:39;;;;;;;7.15;3.60;;;;;;;25.76;44.08;99527.38;5033064;28;20097;-73
2022/08/07 04:48:40;;;;;;;7.05;3.60;;;;;;;25.80;44.09;99530.97;5032749;28;20103;-74
2022/08/07 04:51:53;;;;;;;6.72;3.72;;;;;;;25.79;44.18;99529.34;5032690;28;20531;-74
2022/08/07 04:54:53;;;;;;;9.50;4.35;;;;;;;25.89;43.96;99530.38;5032243;28;20053;-74
2022/08/07 04:57:41;;;;;;;8.13;3.80;;;;;;;25.99;43.89;99538.75;5031780;28;20052;-68
2022/08/07 05:00:59;;;;;;;10.00;3.80;;;;;;;26.12;43.58;99539.75;5041527;28;20533;-70
2022/08/07 05:03:50;;;;;;;6.38;3.60;;;;;;;26.19;43.40;99533.88;5052201;28;20415;-69
2022/08/07 05:06:57;;;;;;;8.15;3.92;;;;;;;26.29;43.09;99541.41;5052244;28;20052;-69
2022/08/07 05:09:39;;;;;;;10.85;3.95;;;;;;;26.31;43.09;99544.66;5052162;28;20503;-69
2022/08/07 05:12:18;;;;;;;5.65;3.30;;;;;;;26.28;42.91;99544.72;5052386;28;20508;-68
2022/08/07 05:15:14;;;;;;;11.75;3.50;;;;;;;26.35;42.81;99533.97;5052118;28;20080;-68
2022/08/07 05:17:57;;;;;;;4.88;3.25;;;;;;;26.50;42.42;99528.78;5052086;28;20052;-69
2022/08/07 05:20:35;;;;;;;8.13;3.85;;;;;;;26.65;42.13;99536.59;5052436;28;20393;-68
2022/08/07 05:23:26;;;;;;;5.80;3.40;;;;;;;26.68;42.07;99538.56;5033333;28;20057;-68
2022/08/07 05:26:00;;;;;;;6.68;3.17;;;;;;;26.59;42.15;99524.06;5032120;28;20053;-69
2022/08/07 05:28:41;;;;;;;15.60;4.63;;;;;;;26.71;42.07;99523.41;5032590;28;20091;-69
2022/08/07 05:31:18;;;;;;;14.02;3.58;;;;;;;26.88;41.82;99524.25;5032228;28;20050;-68
2022/08/07 05:33:48;;;;;;;9.32;3.97;;;;;;;27.16;41.37;99522.81;5030689;28;20069;-68
2022/08/07 05:36:32;;;;;;;7.57;3.55;;;;;;;27.41;41.08;99531.63;5032102;28;20115;-68
2022/08/07 05:39:01;;;;;;;9.75;3.60;;;;;;;27.55;40.74;99529.19;5032308;28;20076;-68
2022/08/07 05:41:49;;;;;;;6.20;3.75;;;;;;;27.76;40.43;99533.53;5032025;28;20115;-68
2022/08/07 05:44:34;;;;;;;8.75;3.42;;;;;;;28.03;40.44;99528.34;5031919;28;20461;-68
2022/08/07 05:47:03;;;;;;;11.48;3.60;;;;;;;28.39;40.11;99534.69;5032365;28;20053;-68
2022/08/07 05:49:49;;;;;;;11.07;3.97;;;;;;;29.05;38.74;99531.91;5040409;28;20525;-67
2022/08/07 05:52:17;;;;;;;7.55;3.15;;;;;;;29.84;37.76;99543.22;5051721;28;20059;-68
2022/08/07 05:54:46;;;;;;;6.07;3.72;;;;;;;30.12;36.82;99543.00;5051568;28;20119;-68
2022/08/07 05:57:26;;;;;;;6.30;3.15;;;;;;;30.17;35.90;99533.78;5051657;28;20061;-68
2022/08/07 06:00:00;;;;;;;9.57;3.72;;;;;;;30.04;36.38;99532.22;5047446;28;20128;-68
2022/08/07 06:02:34;;;;;;;8.95;3.53;;;;;;;29.95;36.32;99538.69;5032102;28;20046;-69
2022/08/07 06:05:07;;;;;;;10.15;3.78;;;;;;;29.92;36.07;99542.50;5032112;28;20061;-68
2022/08/07 06:07:38;;;;;;;13.93;3.92;;;;;;;29.88;36.35;99538.97;5031938;28;20461;-68
2022/08/07 06:10:26;;;;;;;7.83;3.80;;;;;;;29.64;36.60;99546.34;5035313;28;20045;-68
2022/08/07 06:12:53;;;;;;;6.82;3.88;;;;;;;29.33;37.72;99553.91;5035609;28;20298;-68
2022/08/07 06:15:22;;;;;;;10.73;4.15;;;;;;;29.17;37.64;99545.44;5035593;28;20080;-68
2022/08/07 06:18:11;;;;;;;12.37;4.70;;;;;;;29.03;38.21;99548.72;5035408;28;20119;-68
2022/08/07 06:20:40;;;;;;;8.00;4.10;;;;;;;29.02;38.26;99552.84;5035278;28;20450;-68
2022/08/07 06:23:28;;;;;;;8.52;3.67;;;;;;;29.38;37.88;99539.00;5034100;28;20053;-69
2022/08/07 06:26:15;;;;;;;12.32;3.85;;;;;;;30.27;35.63;99542.50;5035423;28;20421;-67
2022/08/07 06:28:53;;;;;;;12.27;4.32;;;;;;;29.88;36.33;99550.44;5035344;28;20060;-68
2022/08/07 06:31:20;;;;;;;15.43;4.07;;;;;;;29.36;37.78;99555.03;5034794;28;20041;-67
2022/08/07 06:34:04;;;;;;;19.35;3.80;;;;;;;28.98;38.72;99555.00;5035382;28;20435;-69
2022/08/07 06:36:31;;;;;;;9.32;3.83;;;;;;;29.29;38.09;99553.22;5034901;28;20048;-68
2022/08/07 06:39:01;;;;;;;8.18;4.07;;;;;;;29.84;37.27;99555.47;5042989;28;20080;-68
2022/08/07 06:42:03;;;;;;;10.43;4.40;;;;;;;29.64;37.30;99554.16;5054911;28;20095;-68
2022/08/07 06:44:31;;;;;;;15.63;4.63;;;;;;;29.21;38.11;99548.97;5054779;28;20048;-68
2022/08/07 06:47:03;;;;;;;8.27;4.05;;;;;;;28.88;39.16;99559.00;5053704;28;20143;-68
2022/08/07 06:49:39;;;;;;;13.10;4.32;;;;;;;28.63;39.74;99550.38;5046649;28;20141;-67
2022/08/07 06:52:19;;;;;;;17.00;4.93;;;;;;;28.47;40.07;99559.00;5034328;28;20049;-68
2022/08/07 06:55:02;;;;;;;12.30;4.60;;;;;;;28.36;40.32;99567.09;5033683;28;20087;-69
2022/08/07 06:57:52;;;;;;;16.00;4.40;;;;;;;28.22;40.95;99558.88;5034865;28;20111;-68
2022/08/07 07:00:24;;;;;;;16.42;4.63;;;;;;;28.07;40.89;99563.41;5042016;28;20518;-68
2022/08/07 07:02:56;;;;;;;9.88;3.92;;;;;;;28.05;40.98;99554.44;5054225;28;20136;-69
2022/08/07 07:05:34;;;;;;;10.80;4.20;;;;;;;28.23;40.78;99557.63;5052931;28;20136;-68
2022/08/07 07:08:28;;;;;;;7.95;4.10;;;;;;;28.43;40.25;99549.69;5054241;28;20512;-68
2022/08/07 07:11:00;;;;;;;8.68;4.00;;;;;;;28.55;40.33;99551.81;5054314;28;20557;-69
2022/08/07 07:13:43;;;;;;;9.85;4.47;;;;;;;30.39;36.78;99562.56;5054596;28;20053;-68
2022/08/07 07:16:32;;;;;;;24.25;4.57;;;;;;;31.45;35.06;99553.50;5054448;28;20072;-69
2022/08/07 07:19:12;;;;;;;10.70;3.95;;;;;;;31.51;35.02;99557.38;5054066;28;20051;-69
2022/08/07 07:22:00;;;;;;;7.60;3.65;;;;;;;31.38;35.37;99562.44;5035246;28;20053;-69
2022/08/07 07:24:39;;;;;;;11.77;4.32;;;;;;;32.21;34.18;99553.56;5034207;28;20145;-68
2022/08/07 07:27:25;;;;;;;20.45;4.45;;;;;;;35.70;29.01;99550.28;5034045;28;20152;-68
2022/08/07 07:30:03;;;;;;;7.07;3.70;;;;;;;35.86;28.55;99543.97;5034425;28;20419;-68
2022/08/07 07:32:42;;;;;;;9.52;3.55;;;;;;;39.46;24.41;99551.97;5034160;28;20069;-68
2022/08/07 07:35:12;;;;;;;8.20;3.88;;;;;;;39.88;23.49;99548.00;5034440;28;20045;-68
2022/08/07 07:37:40;;;;;;;;;;;;;;;40.38;22.57;99553.69;5034711;28;20050;-68
2022/08/07 07:40:18;;;;;;;12.55;3.20;;;;;;;38.13;24.84;99547.13;5032581;28;20404;-69
2022/08/07 07:42:49;;;;;;;7.43;3.78;;;;;;;39.12;23.97;99550.38;5034026;28;20548;-69
2022/08/07 07:45:23;;;;;;;11.50;3.60;;;;;;;42.72;19.58;99544.78;5032482;28;20060;-69
2022/08/07 07:48:14;;;;;;;12.68;4.15;;;;;;;44.81;17.02;99542.28;5033791;28;20068;-68
2022/08/07 07:51:05;;;;;;;18.25;4.70;;;;;;;40.83;21.08;99544.19;5033812;28;20049;-69
2022/08/07 07:53:41;;;;;;;14.95;4.35;;;;;;;41.71;20.37;99544.84;5033587;28;20071;-69
2022/08/07 07:56:21;;;;;;;8.63;3.78;;;;;;;43.19;18.76;99542.97;5033776;28;20060;-68
2022/08/07 07:58:59;;;;;;;;;;;;;;;41.66;20.85;99539.84;5033795;28;20049;-68
2022/08/07 08:01:28;;;;;;;;;;;;;;;39.40;23.42;99551.19;5050321;28;19955;-67
2022/08/07 08:04:16;;;;;;;;;;;;;;;37.86;25.33;99547.75;5053634;28;19978;-72
2022/08/07 08:06:44;;;;;;;;;;;;;;;39.18;23.61;99545.34;5053779;28;20015;-72
2022/08/07 08:09:19;;;;;;;;;;;;;;;42.89;19.94;99554.09;5053440;28;19928;-72
2022/08/07 08:11:50;;;;;;;;;;;;;;;45.80;17.32;99542.81;5053643;28;20286;-74
2022/08/07 08:14:32;;;;;;;;;;;;;;;47.82;15.32;99550.19;5053698;28;19931;-75
2022/08/07 08:17:03;;;;;;;;;;;;;;;49.61;14.57;99547.22;5052105;28;20338;-74
2022/08/07 08:19:51;;;;;;;;;;;;;;;50.20;13.94;99547.31;5053427;28;19924;-74
2022/08/07 08:28:17;;;;;;;;;;;;;;;53.74;11.79;99539.75;5031814;28;20423;-74
2022/08/07 08:31:04;;;;;;;;;;;;;;;55.11;10.50;99538.28;5032962;28;19925;-75
2022/08/07 08:33:33;;;;;;;;;;;;;;;55.97;10.08;99536.50;5033385;28;19971;-74
2022/08/07 08:36:00;;;;;;;;;;;;;;;56.60;9.58;99539.75;5033076;28;19925;-74
2022/08/07 08:38:31;;;;;;;;;;;;;;;56.02;9.77;99538.31;5033349;28;19925;-74
2022/08/07 08:41:15;;;;;;;;;;;;;;;53.91;10.43;99523.88;5033724;28;19941;-74
2022/08/07 08:44:03;;;;;;;;;;;;;;;53.97;10.52;99524.28;5033156;28;19975;-75
2022/08/07 08:46:52;;;;;;;;;;;;;;;53.07;10.67;99515.38;5033461;28;19983;-75
2022/08/07 08:49:20;;;;;;;;;;;;;;;53.55;10.32;99519.00;5038247;28;19931;-75
2022/08/07 08:52:10;;;;;;;;;;;;;;;53.56;10.34;99507.84;5052889;28;19946;-74
2022/08/07 08:54:54;;;;;;;;;;;;;;;51.63;11.65;99492.84;5052502;28;19932;-74
2022/08/07 08:57:41;;;;;;;;;;;;;;;51.90;10.68;99493.56;5052760;28;19993;-74
2022/08/07 09:00:11;;;;;;;;;;;;;;;50.24;11.42;99500.28;5046989;28;19931;-74
2022/08/07 09:02:37;;;;;;;;;;;;;;;49.72;11.44;99495.69;5032854;28;19933;-74
2022/08/07 09:05:08;;;;;;;;;;;;;;;50.01;10.84;99505.66;5033058;28;19948;-74
2022/08/07 09:07:43;;;;;;;;;;;;;;;50.13;10.83;99491.94;5032896;28;19925;-74
2022/08/07 09:10:28;;;;;;;;;;;;;;;49.21;11.34;99505.09;5032968;28;19997;-74
2022/08/07 09:12:55;;;;;;;;;;;;;;;47.57;12.46;99505.78;5032831;28;19963;-74
2022/08/07 09:15:40;;;;;;;;;;;;;;;46.43;13.02;99505.19;5032676;28;19929;-74
2022/08/07 09:18:40;;;;;;;;;;;;;;;44.28;14.92;99493.84;5032997;28;20395;-74
2022/08/07 09:21:30;;;;;;;;;;;;;;;43.11;15.54;99498.13;5033266;28;19975;-73
2022/08/07 09:24:02;;;;;;;;;;;;;;;42.10;16.60;99481.72;5032706;28;19925;-74
2022/08/07 09:26:49;;;;;;;;;;;;;;;41.95;16.51;99493.06;5032974;28;19987;-68
2022/08/07 09:29:21;;;;;;;;;;;;;;;43.21;15.67;99488.94;5032655;28;19971;-68
2022/08/07 09:32:31;;;;;;;;;;;;;;;44.52;14.61;99490.66;5032768;28;19932;-68
2022/08/07 09:35:01;;;;;;;;;;;;;;;45.20;14.12;99480.50;5013606;28;19925;-68
2022/08/07 09:38:03;;;;;;;;;;;;;;;47.14;12.56;99476.38;5031027;28;19931;-68
2022/08/07 09:40:44;;;;;;;;;;;;;;;49.13;11.45;99481.50;5032693;28;19931;-67
2022/08/07 09:43:28;;;;;;;;;;;;;;;49.48;11.49;99486.19;5032647;28;19932;-68
2022/08/07 09:46:20;;;;;;;;;;;;;;;46.09;13.84;99475.94;5036475;28;20058;-67
2022/08/07 09:49:14;;;;;;;;;;;;;;;43.04;16.34;99468.69;5036201;28;19932;-67
2022/08/07 09:52:13;;;;;;;;;;;;;;;41.08;17.85;99467.06;5037168;28;19955;-67
2022/08/07 09:55:32;;;;;;;;;;;;;;;39.76;19.11;99467.75;5021180;28;19929;-68
2022/08/07 09:58:37;;;;;;;;;;;;;;;38.51;20.61;99467.19;5019363;28;19983;-68
2022/08/07 10:01:12;;;;;;;;;;;;;;;37.87;21.23;99462.16;5050100;28;19928;-68
2022/08/07 10:04:06;;;;;;;;;;;;;;;37.12;22.47;99441.59;5055866;28;19928;-68
2022/08/07 10:06:53;;;;;;;;;;;;;;;36.21;23.46;99445.41;5055679;28;20348;-67
2022/08/07 10:09:23;;;;;;;;;;;;;;;35.81;23.66;99445.41;5055721;28;20475;-67
2022/08/07 10:12:09;;;;;;;;;;;;;;;35.46;24.74;99438.91;5055732;28;19975;-67
2022/08/07 10:14:56;;;;;;;;;;;;;;;35.24;24.44;99438.53;5056011;28;19925;-68
2022/08/07 10:17:46;;;;;;;;;;;;;;;34.76;25.05;99435.09;5055883;28;19932;-68
2022/08/07 10:20:34;;;;;;;;;;;;;;;34.48;25.34;99430.91;5055667;28;19925;-67
2022/08/07 10:23:22;;;;;;;;;;;;;;;34.21;25.83;99437.75;5055870;28;19925;-68
2022/08/07 10:26:28;;;;;;;;;;;;;;;33.96;26.13;99435.41;5055805;28;20387;-69
2022/08/07 10:28:56;;;;;;;;;;;;;;;34.01;25.89;99431.03;5055340;28;19925;-69
2022/08/07 10:31:55;;;;;;;;;;;;;;;33.85;25.92;99434.34;5055962;28;19974;-69
2022/08/07 10:34:36;;;;;;;;;;;;;;;33.70;25.86;99430.59;5032962;28;19935;-69
2022/08/07 10:37:06;;;;;;;;;;;;;;;33.82;25.66;99435.31;5056219;28;19925;-69
2022/08/07 10:39:56;;;;;;;;;;;;;;;33.75;25.66;99435.72;5041172;28;19925;-69
2022/08/07 10:42:50;;;;;;;;;;;;;;;33.40;26.12;99435.47;5049530;28;19979;-69
2022/08/07 10:45:18;;;;;;;;;;;;;;;33.04;26.54;99424.88;5035520;28;20042;-68
2022/08/07 10:48:17;;;;;;;;;;;;;;;32.91;26.59;99435.84;5035441;28;19932;-68
2022/08/07 10:50:45;;;;;;;;;;;;;;;32.81;26.57;99411.22;5035563;28;20427;-68
2022/08/07 10:53:22;;;;;;;;;;;;;;;32.99;26.76;99419.81;5035061;28;19937;-68
2022/08/07 10:56:01;;;;;;;;;;;;;;;33.10;26.46;99413.50;5035185;28;20035;-68
2022/08/07 10:58:43;;;;;;;;;;;;;;;33.15;26.63;99407.03;5034938;28;19972;-68
2022/08/07 11:01:26;;;;;;;;;;;;;;;32.96;27.07;99403.47;5049685;28;19924;-67
2022/08/07 11:04:21;;;;;;;;;;;;;;;32.88;26.96;99410.88;5053988;28;19932;-68
2022/08/07 11:07:05;;;;;;;;;;;;;;;32.82;27.24;99397.56;5054975;28;20311;-68
2022/08/07 11:09:54;;;;;;;;;;;;;;;32.80;27.22;99400.94;5055075;28;19924;-69
2022/08/07 11:12:44;;;;;;;;;;;;;;;33.02;26.84;99400.72;5054714;28;20456;-67
2022/08/07 11:15:19;;;;;;;;;;;;;;;33.07;26.96;99414.47;5055161;28;19931;-68
2022/08/07 11:18:03;;;;;;;;;;;;;;;32.88;27.05;99395.66;5055065;28;20019;-68
2022/08/07 11:20:42;;;;;;;;;;;;;;;32.81;27.12;99402.56;5054807;28;19928;-67
2022/08/07 11:23:20;;;;;;;;;;;;;;;32.95;26.70;99396.09;5054874;28;19931;-68
2022/08/07 11:26:21;;;;;;;;;;;;;;;33.16;26.06;99391.38;5054734;28;20015;-68
2022/08/07 11:28:51;;;;;;;;;;;;;;;33.08;26.12;99416.06;5041070;28;19967;-68
2022/08/07 11:31:29;;;;;;;;;;;;;;;32.78;25.94;99409.31;5034669;28;19925;-69
2022/08/07 11:34:05;;;;;;;;;;;;;;;32.60;27.16;99420.91;5034261;28;20407;-68
2022/08/07 11:36:35;;;;;;;;;;;;;;;32.10;29.75;99423.66;5033050;28;19932;-67
2022/08/07 11:39:05;;;;;;;;;;;;;;;31.72;31.14;99424.94;5034429;28;19960;-68
2022/08/07 11:41:38;;;;;;;;;;;;;;;31.26;32.24;99428.19;5033008;28;19925;-68
2022/08/07 11:44:38;;;;;;;;;;;;;;;30.93;33.09;99438.63;5032904;28;19925;-68
2022/08/07 11:47:18;;;;;;;;;;;;;;;30.73;34.02;99435.31;5034138;28;19928;-69
2022/08/07 11:49:55;;;;;;;;;;;;;;;30.46;34.59;99435.94;5042422;28;20384;-69
2022/08/07 11:53:04;;;;;;;;;;;;;;;30.01;35.75;99445.03;5053995;28;19932;-67
2022/08/07 11:55:31;;;;;;;;;;;;;;;29.81;35.64;99458.88;5053859;28;20413;-67
2022/08/07 11:58:26;;;;;;;;;;;;;;;29.58;35.97;99464.19;5054015;28;20334;-67
2022/08/07 12:01:16;;;;;;;;;;;;;;;29.38;36.71;99475.94;5041033;28;19956;-67
2022/08/07 12:04:05;;;;;;;;;;;;;;;29.15;37.23;99464.84;5033709;28;19928;-67
2022/08/07 12:06:44;;;;;;;;;;;;;;;28.85;37.87;99471.13;5033297;28;19976;-67
2022/08/07 12:09:41;;;;;;;;;;;;;;;28.54;38.61;99484.38;5047760;28;20307;-67
2022/08/07 12:12:16;;;;;;;;;;;;;;;28.23;39.28;99469.72;5033596;28;19925;-66
2022/08/07 12:14:51;;;;;;;;;;;;;;;28.08;39.30;99484.91;5034091;28;19925;-67
2022/08/07 12:17:29;;;;;;;;;;;;;;;28.10;38.86;99482.41;5033210;28;19967;-66
2022/08/07 12:20:08;;;;;;;;;;;;;;;28.08;38.90;99496.34;5033713;28;19975;-66
2022/08/07 12:23:18;;;;;;;;;;;;;;;28.04;38.33;99499.28;5033528;28;20024;-67
2022/08/07 12:26:28;;;;;;;;;;;;;;;27.97;37.81;99502.34;5033502;28;19925;-66
2022/08/07 12:29:11;;;;;;;;;;;;;;;27.94;37.75;99506.13;5028592;28;20431;-66
2022/08/07 12:31:57;;;;;;;;;;;;;;;27.83;38.05;99519.06;5033976;28;19964;-67
2022/08/07 12:34:37;;;;;;;;;;;;;;;27.67;38.83;99519.09;5032976;28;19983;-67
2022/08/07 12:37:05;;;;;;;;;;;;;;;27.49;39.66;99541.59;5033215;28;19976;-67
2022/08/07 12:39:43;;;;;;;;;;;;;;;27.42;39.91;99551.19;5046077;28;19974;-67
2022/08/07 12:42:19;;;;;;;;;;;;;;;27.13;41.49;99537.97;5053318;28;19925;-66
2022/08/07 12:44:54;;;;;;;;;;;;;;;26.74;43.05;99545.38;5052539;28;19933;-68
2022/08/07 12:47:22;;;;;;;;;;;;;;;26.44;43.86;99539.09;5052815;28;20314;-66
2022/08/07 12:50:01;;;;;;;;;;;;;;;26.29;44.68;99541.41;5042262;28;19924;-67
2022/08/07 12:52:33;;;;;;;;;;;;;;;26.19;44.84;99542.44;5032899;28;20380;-67
2022/08/07 12:55:19;;;;;;;;;;;;;;;26.25;44.50;99552.09;5033427;28;19925;-67
2022/08/07 12:57:50;;;;;;;;;;;;;;;26.37;44.23;99560.00;5032679;28;20320;-68
2022/08/07 13:01:00;;;;;;;;;;;;;;;26.36;44.77;99552.72;5041454;28;19925;-67
2022/08/07 13:03:46;;;;;;;;;;;;;;;26.06;44.97;99555.75;5030501;28;19925;-67
2022/08/07 13:06:43;;;;;;;;;;;;;;;26.02;45.44;99566.41;5053040;28;19929;-67